sensor_id;sensor_type;location;lat;lon;timestamp;P1;durP1;ratioP1;P2;durP2;ratioP2
69087;SDS011;56190;43.562;5.036;2023-06-05T00:00:29;4.65;;;3.30;;
69087;SDS011;56190;43.562;5.036;2023-06-05T00:02:55;4.45;;;3.47;;
69087;SDS011;56190;43.562;5.036;2023-06-05T00:05:20;3.85;;;3.13;;
69087;SDS011;56190;43.562;5.036;2023-06-05T00:07:45;4.20;;;3.58;;
69087;SDS011;56190;43.562;5.036;2023-06-05T00:10:10;3.08;;;2.78;;
69087;SDS011;56190;43.562;5.036;2023-06-05T00:12:36;3.85;;;3.30;;
69087;SDS011;56190;43.562;5.036;2023-06-05T00:15:01;3.90;;;3.60;;
69087;SDS011;56190;43.562;5.036;2023-06-05T00:17:27;5.15;;;3.72;;
69087;SDS011;56190;43.562;5.036;2023-06-05T00:19:53;3.67;;;3.28;;
69087;SDS011;56190;43.562;5.036;2023-06-05T00:22:18;5.20;;;4.03;;
69087;SDS011;56190;43.562;5.036;2023-06-05T00:24:44;6.47;;;4.15;;
69087;SDS011;56190;43.562;5.036;2023-06-05T00:27:09;5.18;;;4.20;;
69087;SDS011;56190;43.562;5.036;2023-06-05T00:29:36;5.30;;;3.70;;
69087;SDS011;56190;43.562;5.036;2023-06-05T00:32:04;4.85;;;3.50;;
69087;SDS011;56190;43.562;5.036;2023-06-05T00:34:29;3.95;;;3.40;;
69087;SDS011;56190;43.562;5.036;2023-06-05T00:36:55;6.15;;;3.88;;
69087;SDS011;56190;43.562;5.036;2023-06-05T00:39:22;6.40;;;4.07;;
69087;SDS011;56190;43.562;5.036;2023-06-05T00:41:48;4.53;;;4.10;;
69087;SDS011;56190;43.562;5.036;2023-06-05T00:44:15;4.80;;;4.03;;
69087;SDS011;56190;43.562;5.036;2023-06-05T00:46:44;5.22;;;4.03;;
69087;SDS011;56190;43.562;5.036;2023-06-05T00:49:10;4.97;;;4.00;;
69087;SDS011;56190;43.562;5.036;2023-06-05T00:51:38;5.32;;;4.13;;
69087;SDS011;56190;43.562;5.036;2023-06-05T00:54:05;5.63;;;4.32;;
69087;SDS011;56190;43.562;5.036;2023-06-05T00:56:31;4.82;;;4.07;;
69087;SDS011;56190;43.562;5.036;2023-06-05T00:59:00;4.30;;;3.90;;
69087;SDS011;56190;43.562;5.036;2023-06-05T01:01:25;4.55;;;4.05;;
69087;SDS011;56190;43.562;5.036;2023-06-05T01:03:53;5.10;;;4.00;;
69087;SDS011;56190;43.562;5.036;2023-06-05T01:06:22;4.65;;;4.20;;
69087;SDS011;56190;43.562;5.036;2023-06-05T01:08:48;5.03;;;4.38;;
69087;SDS011;56190;43.562;5.036;2023-06-05T01:14:08;4.40;;;4.00;;
69087;SDS011;56190;43.562;5.036;2023-06-05T01:16:37;4.88;;;4.30;;
69087;SDS011;56190;43.562;5.036;2023-06-05T01:19:03;5.95;;;4.00;;
69087;SDS011;56190;43.562;5.036;2023-06-05T01:21:29;4.82;;;3.80;;
69087;SDS011;56190;43.562;5.036;2023-06-05T01:23:54;4.60;;;4.20;;
69087;SDS011;56190;43.562;5.036;2023-06-05T01:26:20;5.05;;;3.90;;
69087;SDS011;56190;43.562;5.036;2023-06-05T01:28:48;5.15;;;3.88;;
69087;SDS011;56190;43.562;5.036;2023-06-05T01:31:15;4.82;;;3.45;;
69087;SDS011;56190;43.562;5.036;2023-06-05T01:33:49;4.93;;;3.88;;
69087;SDS011;56190;43.562;5.036;2023-06-05T01:36:19;3.67;;;3.38;;
69087;SDS011;56190;43.562;5.036;2023-06-05T01:38:44;4.10;;;3.70;;
69087;SDS011;56190;43.562;5.036;2023-06-05T01:41:11;4.35;;;3.65;;
69087;SDS011;56190;43.562;5.036;2023-06-05T01:43:37;4.72;;;3.53;;
69087;SDS011;56190;43.562;5.036;2023-06-05T01:46:03;4.43;;;3.78;;
69087;SDS011;56190;43.562;5.036;2023-06-05T01:48:28;3.50;;;3.20;;
69087;SDS011;56190;43.562;5.036;2023-06-05T01:50:55;3.92;;;3.45;;
69087;SDS011;56190;43.562;5.036;2023-06-05T01:53:21;8.02;;;3.90;;
69087;SDS011;56190;43.562;5.036;2023-06-05T01:55:46;4.35;;;3.65;;
69087;SDS011;56190;43.562;5.036;2023-06-05T01:58:13;4.57;;;3.35;;
69087;SDS011;56190;43.562;5.036;2023-06-05T02:00:38;4.90;;;3.15;;
69087;SDS011;56190;43.562;5.036;2023-06-05T02:03:06;4.57;;;3.80;;
69087;SDS011;56190;43.562;5.036;2023-06-05T02:05:32;4.57;;;3.45;;
69087;SDS011;56190;43.562;5.036;2023-06-05T02:08:00;5.45;;;3.50;;
69087;SDS011;56190;43.562;5.036;2023-06-05T02:10:30;4.17;;;3.77;;
69087;SDS011;56190;43.562;5.036;2023-06-05T02:12:56;4.57;;;3.97;;
69087;SDS011;56190;43.562;5.036;2023-06-05T02:15:21;5.82;;;4.13;;
69087;SDS011;56190;43.562;5.036;2023-06-05T02:17:48;4.30;;;3.90;;
69087;SDS011;56190;43.562;5.036;2023-06-05T02:20:19;4.53;;;3.90;;
69087;SDS011;56190;43.562;5.036;2023-06-05T02:22:44;4.28;;;3.88;;
69087;SDS011;56190;43.562;5.036;2023-06-05T02:25:09;4.60;;;4.13;;
69087;SDS011;56190;43.562;5.036;2023-06-05T02:27:35;5.65;;;4.30;;
69087;SDS011;56190;43.562;5.036;2023-06-05T02:30:01;5.40;;;4.30;;
69087;SDS011;56190;43.562;5.036;2023-06-05T02:32:27;5.10;;;4.25;;
69087;SDS011;56190;43.562;5.036;2023-06-05T02:34:54;4.40;;;4.00;;
69087;SDS011;56190;43.562;5.036;2023-06-05T02:37:23;6.93;;;4.38;;
69087;SDS011;56190;43.562;5.036;2023-06-05T02:39:49;5.20;;;4.47;;
69087;SDS011;56190;43.562;5.036;2023-06-05T02:42:14;5.72;;;4.10;;
69087;SDS011;56190;43.562;5.036;2023-06-05T02:44:40;5.15;;;4.38;;
69087;SDS011;56190;43.562;5.036;2023-06-05T02:47:05;4.93;;;4.43;;
69087;SDS011;56190;43.562;5.036;2023-06-05T02:49:30;4.40;;;4.00;;
69087;SDS011;56190;43.562;5.036;2023-06-05T02:51:57;5.25;;;4.72;;
69087;SDS011;56190;43.562;5.036;2023-06-05T02:54:23;5.00;;;4.47;;
69087;SDS011;56190;43.562;5.036;2023-06-05T02:56:48;4.38;;;3.97;;
69087;SDS011;56190;43.562;5.036;2023-06-05T02:59:14;5.35;;;4.05;;
69087;SDS011;56190;43.562;5.036;2023-06-05T03:01:40;5.38;;;4.22;;
69087;SDS011;56190;43.562;5.036;2023-06-05T03:04:12;4.40;;;3.83;;
69087;SDS011;56190;43.562;5.036;2023-06-05T03:06:38;5.45;;;4.70;;
69087;SDS011;56190;43.562;5.036;2023-06-05T03:09:03;4.25;;;3.85;;
69087;SDS011;56190;43.562;5.036;2023-06-05T03:11:30;5.82;;;4.35;;
69087;SDS011;56190;43.562;5.036;2023-06-05T03:13:56;4.50;;;4.10;;
69087;SDS011;56190;43.562;5.036;2023-06-05T03:16:21;4.57;;;4.18;;
69087;SDS011;56190;43.562;5.036;2023-06-05T03:18:48;4.53;;;4.00;;
69087;SDS011;56190;43.562;5.036;2023-06-05T03:21:14;4.07;;;3.67;;
69087;SDS011;56190;43.562;5.036;2023-06-05T03:23:40;5.28;;;3.90;;
69087;SDS011;56190;43.562;5.036;2023-06-05T03:26:07;4.63;;;3.83;;
69087;SDS011;56190;43.562;5.036;2023-06-05T03:28:32;4.43;;;4.03;;
69087;SDS011;56190;43.562;5.036;2023-06-05T03:30:58;4.82;;;4.13;;
69087;SDS011;56190;43.562;5.036;2023-06-05T03:33:24;5.38;;;3.95;;
69087;SDS011;56190;43.562;5.036;2023-06-05T03:35:50;5.28;;;4.13;;
69087;SDS011;56190;43.562;5.036;2023-06-05T03:38:17;4.38;;;3.90;;
69087;SDS011;56190;43.562;5.036;2023-06-05T03:40:42;5.57;;;3.78;;
69087;SDS011;56190;43.562;5.036;2023-06-05T03:43:08;4.45;;;4.05;;
69087;SDS011;56190;43.562;5.036;2023-06-05T03:45:36;5.13;;;4.50;;
69087;SDS011;56190;43.562;5.036;2023-06-05T03:48:01;5.75;;;4.10;;
69087;SDS011;56190;43.562;5.036;2023-06-05T03:50:27;5.57;;;4.30;;
69087;SDS011;56190;43.562;5.036;2023-06-05T03:52:59;4.97;;;4.47;;
69087;SDS011;56190;43.562;5.036;2023-06-05T03:55:31;4.65;;;4.25;;
69087;SDS011;56190;43.562;5.036;2023-06-05T03:58:02;5.10;;;4.60;;
69087;SDS011;56190;43.562;5.036;2023-06-05T04:00:27;4.72;;;4.32;;
69087;SDS011;56190;43.562;5.036;2023-06-05T04:02:53;4.80;;;4.30;;
69087;SDS011;56190;43.562;5.036;2023-06-05T04:05:18;6.82;;;4.25;;
69087;SDS011;56190;43.562;5.036;2023-06-05T04:07:43;4.45;;;4.05;;
69087;SDS011;56190;43.562;5.036;2023-06-05T04:10:09;5.20;;;4.25;;
69087;SDS011;56190;43.562;5.036;2023-06-05T04:12:34;4.88;;;4.40;;
69087;SDS011;56190;43.562;5.036;2023-06-05T04:15:00;5.68;;;4.63;;
69087;SDS011;56190;43.562;5.036;2023-06-05T04:17:27;5.03;;;4.13;;
69087;SDS011;56190;43.562;5.036;2023-06-05T04:19:54;6.10;;;4.38;;
69087;SDS011;56190;43.562;5.036;2023-06-05T04:22:19;4.32;;;3.78;;
69087;SDS011;56190;43.562;5.036;2023-06-05T04:24:44;4.95;;;4.18;;
69087;SDS011;56190;43.562;5.036;2023-06-05T04:27:11;5.38;;;4.88;;
69087;SDS011;56190;43.562;5.036;2023-06-05T04:29:39;6.03;;;4.78;;
69087;SDS011;56190;43.562;5.036;2023-06-05T04:32:04;5.85;;;4.45;;
69087;SDS011;56190;43.562;5.036;2023-06-05T04:34:29;6.60;;;4.70;;
69087;SDS011;56190;43.562;5.036;2023-06-05T04:36:56;7.55;;;5.13;;
69087;SDS011;56190;43.562;5.036;2023-06-05T04:39:21;4.50;;;4.10;;
69087;SDS011;56190;43.562;5.036;2023-06-05T04:41:46;5.35;;;4.45;;
69087;SDS011;56190;43.562;5.036;2023-06-05T04:44:12;5.20;;;4.70;;
69087;SDS011;56190;43.562;5.036;2023-06-05T04:46:38;4.90;;;4.40;;
69087;SDS011;56190;43.562;5.036;2023-06-05T04:49:05;6.07;;;4.53;;
69087;SDS011;56190;43.562;5.036;2023-06-05T04:51:31;6.20;;;4.88;;
69087;SDS011;56190;43.562;5.036;2023-06-05T04:53:56;5.00;;;4.50;;
69087;SDS011;56190;43.562;5.036;2023-06-05T04:56:21;6.03;;;5.32;;
69087;SDS011;56190;43.562;5.036;2023-06-05T04:58:47;5.95;;;5.35;;
69087;SDS011;56190;43.562;5.036;2023-06-05T05:01:13;5.22;;;4.72;;
69087;SDS011;56190;43.562;5.036;2023-06-05T05:03:38;5.55;;;4.82;;
69087;SDS011;56190;43.562;5.036;2023-06-05T05:06:03;5.18;;;4.68;;
69087;SDS011;56190;43.562;5.036;2023-06-05T05:08:29;4.97;;;4.45;;
69087;SDS011;56190;43.562;5.036;2023-06-05T05:10:56;5.93;;;5.15;;
69087;SDS011;56190;43.562;5.036;2023-06-05T05:13:23;4.53;;;4.13;;
69087;SDS011;56190;43.562;5.036;2023-06-05T05:15:48;5.97;;;4.22;;
69087;SDS011;56190;43.562;5.036;2023-06-05T05:18:17;5.95;;;4.45;;
69087;SDS011;56190;43.562;5.036;2023-06-05T05:20:43;5.53;;;4.70;;
69087;SDS011;56190;43.562;5.036;2023-06-05T05:23:08;5.20;;;4.50;;
69087;SDS011;56190;43.562;5.036;2023-06-05T05:25:34;5.53;;;4.50;;
69087;SDS011;56190;43.562;5.036;2023-06-05T05:28:01;5.47;;;4.65;;
69087;SDS011;56190;43.562;5.036;2023-06-05T05:30:29;5.78;;;4.18;;
69087;SDS011;56190;43.562;5.036;2023-06-05T05:32:57;7.30;;;5.05;;
69087;SDS011;56190;43.562;5.036;2023-06-05T05:35:23;5.97;;;5.32;;
69087;SDS011;56190;43.562;5.036;2023-06-05T05:37:50;7.95;;;4.97;;
69087;SDS011;56190;43.562;5.036;2023-06-05T05:40:16;5.80;;;5.28;;
69087;SDS011;56190;43.562;5.036;2023-06-05T05:42:43;6.57;;;5.30;;
69087;SDS011;56190;43.562;5.036;2023-06-05T05:45:09;5.07;;;4.50;;
69087;SDS011;56190;43.562;5.036;2023-06-05T05:47:34;4.57;;;4.03;;
69087;SDS011;56190;43.562;5.036;2023-06-05T05:49:59;5.20;;;4.38;;
69087;SDS011;56190;43.562;5.036;2023-06-05T05:52:24;4.90;;;4.45;;
69087;SDS011;56190;43.562;5.036;2023-06-05T05:54:50;5.25;;;4.57;;
69087;SDS011;56190;43.562;5.036;2023-06-05T05:57:16;4.88;;;4.20;;
69087;SDS011;56190;43.562;5.036;2023-06-05T05:59:42;4.57;;;4.18;;
69087;SDS011;56190;43.562;5.036;2023-06-05T06:02:09;5.63;;;5.13;;
69087;SDS011;56190;43.562;5.036;2023-06-05T06:04:36;5.13;;;4.63;;
69087;SDS011;56190;43.562;5.036;2023-06-05T06:07:01;5.55;;;4.07;;
69087;SDS011;56190;43.562;5.036;2023-06-05T06:09:27;6.88;;;4.75;;
69087;SDS011;56190;43.562;5.036;2023-06-05T06:11:52;5.75;;;4.90;;
69087;SDS011;56190;43.562;5.036;2023-06-05T06:14:22;4.95;;;4.40;;
69087;SDS011;56190;43.562;5.036;2023-06-05T06:16:47;5.35;;;4.50;;
69087;SDS011;56190;43.562;5.036;2023-06-05T06:19:14;4.80;;;4.40;;
69087;SDS011;56190;43.562;5.036;2023-06-05T06:21:39;4.78;;;4.22;;
69087;SDS011;56190;43.562;5.036;2023-06-05T06:24:05;4.97;;;3.85;;
69087;SDS011;56190;43.562;5.036;2023-06-05T06:26:33;4.70;;;4.20;;
69087;SDS011;56190;43.562;5.036;2023-06-05T06:28:58;4.57;;;4.00;;
69087;SDS011;56190;43.562;5.036;2023-06-05T06:31:24;4.10;;;3.70;;
69087;SDS011;56190;43.562;5.036;2023-06-05T06:33:51;3.72;;;3.40;;
69087;SDS011;56190;43.562;5.036;2023-06-05T06:36:19;4.97;;;3.97;;
69087;SDS011;56190;43.562;5.036;2023-06-05T06:38:44;3.85;;;3.45;;
69087;SDS011;56190;43.562;5.036;2023-06-05T06:41:09;5.20;;;3.80;;
69087;SDS011;56190;43.562;5.036;2023-06-05T06:43:37;4.00;;;3.50;;
69087;SDS011;56190;43.562;5.036;2023-06-05T06:46:02;4.65;;;3.83;;
69087;SDS011;56190;43.562;5.036;2023-06-05T06:48:28;5.05;;;3.78;;
69087;SDS011;56190;43.562;5.036;2023-06-05T06:50:53;5.38;;;4.20;;
69087;SDS011;56190;43.562;5.036;2023-06-05T06:53:19;5.00;;;3.63;;
69087;SDS011;56190;43.562;5.036;2023-06-05T06:55:44;4.50;;;4.05;;
69087;SDS011;56190;43.562;5.036;2023-06-05T06:58:11;4.15;;;3.80;;
69087;SDS011;56190;43.562;5.036;2023-06-05T07:00:36;4.40;;;3.72;;
69087;SDS011;56190;43.562;5.036;2023-06-05T07:03:01;4.25;;;3.72;;
69087;SDS011;56190;43.562;5.036;2023-06-05T07:05:29;6.13;;;4.10;;
69087;SDS011;56190;43.562;5.036;2023-06-05T07:07:57;5.32;;;4.32;;
69087;SDS011;56190;43.562;5.036;2023-06-05T07:10:26;5.65;;;4.07;;
69087;SDS011;56190;43.562;5.036;2023-06-05T07:12:51;4.85;;;4.38;;
69087;SDS011;56190;43.562;5.036;2023-06-05T07:15:16;4.47;;;4.07;;
69087;SDS011;56190;43.562;5.036;2023-06-05T07:17:42;5.15;;;4.40;;
69087;SDS011;56190;43.562;5.036;2023-06-05T07:20:07;6.75;;;4.57;;
69087;SDS011;56190;43.562;5.036;2023-06-05T07:22:36;5.03;;;4.30;;
69087;SDS011;56190;43.562;5.036;2023-06-05T07:25:01;4.95;;;4.47;;
69087;SDS011;56190;43.562;5.036;2023-06-05T07:27:28;4.70;;;4.20;;
69087;SDS011;56190;43.562;5.036;2023-06-05T07:29:53;5.90;;;4.53;;
69087;SDS011;56190;43.562;5.036;2023-06-05T07:32:18;5.55;;;3.90;;
69087;SDS011;56190;43.562;5.036;2023-06-05T07:34:47;4.75;;;4.35;;
69087;SDS011;56190;43.562;5.036;2023-06-05T07:37:13;5.18;;;4.00;;
69087;SDS011;56190;43.562;5.036;2023-06-05T07:39:40;4.82;;;3.92;;
69087;SDS011;56190;43.562;5.036;2023-06-05T07:42:07;5.53;;;4.72;;
69087;SDS011;56190;43.562;5.036;2023-06-05T07:44:32;5.32;;;4.65;;
69087;SDS011;56190;43.562;5.036;2023-06-05T07:46:57;5.82;;;4.70;;
69087;SDS011;56190;43.562;5.036;2023-06-05T07:49:24;5.28;;;4.57;;
69087;SDS011;56190;43.562;5.036;2023-06-05T07:51:49;5.57;;;4.65;;
69087;SDS011;56190;43.562;5.036;2023-06-05T07:54:15;7.30;;;5.18;;
69087;SDS011;56190;43.562;5.036;2023-06-05T07:56:43;6.13;;;5.40;;
69087;SDS011;56190;43.562;5.036;2023-06-05T07:59:10;5.38;;;4.88;;
69087;SDS011;56190;43.562;5.036;2023-06-05T08:01:39;6.55;;;4.38;;
69087;SDS011;56190;43.562;5.036;2023-06-05T08:04:07;7.07;;;5.25;;
69087;SDS011;56190;43.562;5.036;2023-06-05T08:06:35;7.07;;;5.00;;
69087;SDS011;56190;43.562;5.036;2023-06-05T08:09:02;4.85;;;4.10;;
69087;SDS011;56190;43.562;5.036;2023-06-05T08:11:30;5.47;;;4.68;;
69087;SDS011;56190;43.562;5.036;2023-06-05T08:13:55;6.90;;;5.10;;
69087;SDS011;56190;43.562;5.036;2023-06-05T08:16:21;5.60;;;4.80;;
69087;SDS011;56190;43.562;5.036;2023-06-05T08:18:46;7.05;;;4.80;;
69087;SDS011;56190;43.562;5.036;2023-06-05T08:21:12;6.20;;;5.22;;
69087;SDS011;56190;43.562;5.036;2023-06-05T08:23:37;5.70;;;4.68;;
69087;SDS011;56190;43.562;5.036;2023-06-05T08:26:02;5.47;;;4.90;;
69087;SDS011;56190;43.562;5.036;2023-06-05T08:28:35;7.43;;;4.97;;
69087;SDS011;56190;43.562;5.036;2023-06-05T08:31:00;6.28;;;4.90;;
69087;SDS011;56190;43.562;5.036;2023-06-05T08:33:25;6.35;;;4.80;;
69087;SDS011;56190;43.562;5.036;2023-06-05T08:35:52;6.65;;;4.82;;
69087;SDS011;56190;43.562;5.036;2023-06-05T08:38:17;5.50;;;4.82;;
69087;SDS011;56190;43.562;5.036;2023-06-05T08:40:43;5.78;;;4.75;;
69087;SDS011;56190;43.562;5.036;2023-06-05T08:43:08;7.45;;;5.53;;
69087;SDS011;56190;43.562;5.036;2023-06-05T08:45:34;5.75;;;5.15;;
69087;SDS011;56190;43.562;5.036;2023-06-05T08:48:01;6.05;;;5.13;;
69087;SDS011;56190;43.562;5.036;2023-06-05T08:50:29;7.80;;;5.20;;
69087;SDS011;56190;43.562;5.036;2023-06-05T08:52:58;5.88;;;4.80;;
69087;SDS011;56190;43.562;5.036;2023-06-05T08:55:24;5.88;;;4.68;;
69087;SDS011;56190;43.562;5.036;2023-06-05T08:57:51;6.25;;;5.15;;
69087;SDS011;56190;43.562;5.036;2023-06-05T09:00:16;5.68;;;5.00;;
69087;SDS011;56190;43.562;5.036;2023-06-05T09:02:42;5.35;;;4.43;;
69087;SDS011;56190;43.562;5.036;2023-06-05T09:05:16;5.28;;;4.45;;
69087;SDS011;56190;43.562;5.036;2023-06-05T09:07:42;5.30;;;4.35;;
69087;SDS011;56190;43.562;5.036;2023-06-05T09:10:21;8.18;;;4.65;;
69087;SDS011;56190;43.562;5.036;2023-06-05T09:15:21;5.97;;;4.57;;
69087;SDS011;56190;43.562;5.036;2023-06-05T09:17:48;6.95;;;3.95;;
69087;SDS011;56190;43.562;5.036;2023-06-05T09:20:23;4.30;;;3.83;;
69087;SDS011;56190;43.562;5.036;2023-06-05T09:22:51;6.10;;;3.80;;
69087;SDS011;56190;43.562;5.036;2023-06-05T09:25:17;6.25;;;3.60;;
69087;SDS011;56190;43.562;5.036;2023-06-05T09:27:45;6.18;;;4.15;;
69087;SDS011;56190;43.562;5.036;2023-06-05T09:30:28;5.32;;;3.90;;
69087;SDS011;56190;43.562;5.036;2023-06-05T09:32:53;5.63;;;4.32;;
69087;SDS011;56190;43.562;5.036;2023-06-05T09:35:19;6.93;;;3.90;;
69087;SDS011;56190;43.562;5.036;2023-06-05T09:37:44;4.72;;;3.92;;
69087;SDS011;56190;43.562;5.036;2023-06-05T09:40:11;4.85;;;3.88;;
69087;SDS011;56190;43.562;5.036;2023-06-05T09:42:40;4.38;;;3.97;;
69087;SDS011;56190;43.562;5.036;2023-06-05T09:45:06;4.85;;;3.60;;
69087;SDS011;56190;43.562;5.036;2023-06-05T09:47:31;5.32;;;4.35;;
69087;SDS011;56190;43.562;5.036;2023-06-05T09:49:57;4.28;;;3.60;;
69087;SDS011;56190;43.562;5.036;2023-06-05T09:52:23;5.93;;;4.13;;
69087;SDS011;56190;43.562;5.036;2023-06-05T09:54:48;3.40;;;3.10;;
69087;SDS011;56190;43.562;5.036;2023-06-05T09:57:14;4.45;;;3.30;;
69087;SDS011;56190;43.562;5.036;2023-06-05T09:59:55;4.55;;;3.55;;
69087;SDS011;56190;43.562;5.036;2023-06-05T10:02:24;4.03;;;3.60;;
69087;SDS011;56190;43.562;5.036;2023-06-05T10:04:59;3.85;;;3.53;;
69087;SDS011;56190;43.562;5.036;2023-06-05T10:07:24;5.32;;;3.60;;
69087;SDS011;56190;43.562;5.036;2023-06-05T10:09:52;4.22;;;2.72;;
69087;SDS011;56190;43.562;5.036;2023-06-05T10:12:19;3.03;;;2.70;;
69087;SDS011;56190;43.562;5.036;2023-06-05T10:14:45;3.03;;;2.80;;
69087;SDS011;56190;43.562;5.036;2023-06-05T10:17:13;4.05;;;3.10;;
69087;SDS011;56190;43.562;5.036;2023-06-05T10:19:42;4.32;;;3.28;;
69087;SDS011;56190;43.562;5.036;2023-06-05T10:22:09;4.70;;;3.55;;
69087;SDS011;56190;43.562;5.036;2023-06-05T10:24:35;4.03;;;3.60;;
69087;SDS011;56190;43.562;5.036;2023-06-05T10:27:14;4.35;;;3.35;;
69087;SDS011;56190;43.562;5.036;2023-06-05T10:29:54;4.55;;;3.75;;
69087;SDS011;56190;43.562;5.036;2023-06-05T10:39:56;3.60;;;3.30;;
69087;SDS011;56190;43.562;5.036;2023-06-05T10:42:25;5.03;;;3.22;;
69087;SDS011;56190;43.562;5.036;2023-06-05T10:44:51;4.55;;;3.88;;
69087;SDS011;56190;43.562;5.036;2023-06-05T10:50:19;4.03;;;3.60;;
69087;SDS011;56190;43.562;5.036;2023-06-05T10:52:44;4.75;;;3.17;;
69087;SDS011;56190;43.562;5.036;2023-06-05T10:55:10;3.90;;;3.50;;
69087;SDS011;56190;43.562;5.036;2023-06-05T11:00:21;4.57;;;2.92;;
69087;SDS011;56190;43.562;5.036;2023-06-05T11:02:47;3.75;;;3.10;;
69087;SDS011;56190;43.562;5.036;2023-06-05T11:05:12;3.10;;;2.60;;
69087;SDS011;56190;43.562;5.036;2023-06-05T11:07:40;3.75;;;2.92;;
69087;SDS011;56190;43.562;5.036;2023-06-05T11:10:06;3.15;;;2.85;;
69087;SDS011;56190;43.562;5.036;2023-06-05T11:15:02;3.78;;;3.15;;
69087;SDS011;56190;43.562;5.036;2023-06-05T11:17:31;3.17;;;2.88;;
69087;SDS011;56190;43.562;5.036;2023-06-05T11:19:57;4.15;;;3.30;;
69087;SDS011;56190;43.562;5.036;2023-06-05T11:22:24;3.20;;;2.92;;
69087;SDS011;56190;43.562;5.036;2023-06-05T11:30:11;3.50;;;3.20;;
69087;SDS011;56190;43.562;5.036;2023-06-05T11:32:36;5.32;;;2.90;;
69087;SDS011;56190;43.562;5.036;2023-06-05T11:35:01;3.72;;;3.22;;
69087;SDS011;56190;43.562;5.036;2023-06-05T11:37:27;3.70;;;3.17;;
69087;SDS011;56190;43.562;5.036;2023-06-05T11:39:52;3.10;;;2.78;;
69087;SDS011;56190;43.562;5.036;2023-06-05T11:42:21;3.80;;;3.10;;
69087;SDS011;56190;43.562;5.036;2023-06-05T11:44:48;3.30;;;2.67;;
69087;SDS011;56190;43.562;5.036;2023-06-05T11:47:25;4.13;;;2.90;;
69087;SDS011;56190;43.562;5.036;2023-06-05T11:49:53;3.90;;;2.67;;
69087;SDS011;56190;43.562;5.036;2023-06-05T11:52:19;3.28;;;2.92;;
69087;SDS011;56190;43.562;5.036;2023-06-05T11:54:46;3.78;;;2.53;;
69087;SDS011;56190;43.562;5.036;2023-06-05T11:57:18;3.28;;;2.63;;
69087;SDS011;56190;43.562;5.036;2023-06-05T11:59:46;4.95;;;2.90;;
69087;SDS011;56190;43.562;5.036;2023-06-05T12:02:11;3.63;;;2.80;;
69087;SDS011;56190;43.562;5.036;2023-06-05T12:04:40;14.35;;;6.72;;
69087;SDS011;56190;43.562;5.036;2023-06-05T12:07:06;10.48;;;6.10;;
69087;SDS011;56190;43.562;5.036;2023-06-05T12:09:32;8.23;;;4.47;;
69087;SDS011;56190;43.562;5.036;2023-06-05T12:12:06;3.95;;;3.15;;
69087;SDS011;56190;43.562;5.036;2023-06-05T12:14:33;7.55;;;5.40;;
69087;SDS011;56190;43.562;5.036;2023-06-05T12:16:59;6.80;;;5.32;;
69087;SDS011;56190;43.562;5.036;2023-06-05T12:19:24;7.75;;;5.20;;
69087;SDS011;56190;43.562;5.036;2023-06-05T12:21:49;7.68;;;5.75;;
69087;SDS011;56190;43.562;5.036;2023-06-05T12:24:25;7.35;;;5.40;;
69087;SDS011;56190;43.562;5.036;2023-06-05T12:26:51;6.18;;;5.30;;
69087;SDS011;56190;43.562;5.036;2023-06-05T12:29:19;7.68;;;5.03;;
69087;SDS011;56190;43.562;5.036;2023-06-05T12:31:48;7.97;;;5.10;;
69087;SDS011;56190;43.562;5.036;2023-06-05T12:34:16;6.45;;;4.88;;
69087;SDS011;56190;43.562;5.036;2023-06-05T12:36:42;7.10;;;5.32;;
69087;SDS011;56190;43.562;5.036;2023-06-05T12:39:14;7.88;;;5.07;;
69087;SDS011;56190;43.562;5.036;2023-06-05T12:41:40;6.70;;;5.20;;
69087;SDS011;56190;43.562;5.036;2023-06-05T12:44:08;6.32;;;4.63;;
69087;SDS011;56190;43.562;5.036;2023-06-05T12:46:36;7.65;;;4.75;;
69087;SDS011;56190;43.562;5.036;2023-06-05T12:49:02;6.20;;;4.38;;
69087;SDS011;56190;43.562;5.036;2023-06-05T12:51:28;5.53;;;4.22;;
69087;SDS011;56190;43.562;5.036;2023-06-05T12:53:54;6.30;;;4.47;;
69087;SDS011;56190;43.562;5.036;2023-06-05T12:56:19;4.70;;;4.22;;
69087;SDS011;56190;43.562;5.036;2023-06-05T12:58:49;6.97;;;4.30;;
69087;SDS011;56190;43.562;5.036;2023-06-05T13:01:17;6.35;;;4.32;;
69087;SDS011;56190;43.562;5.036;2023-06-05T13:03:42;4.93;;;3.75;;
69087;SDS011;56190;43.562;5.036;2023-06-05T13:06:10;5.35;;;3.60;;
69087;SDS011;56190;43.562;5.036;2023-06-05T13:08:37;6.05;;;3.85;;
69087;SDS011;56190;43.562;5.036;2023-06-05T13:11:05;8.38;;;4.30;;
69087;SDS011;56190;43.562;5.036;2023-06-05T13:13:30;6.78;;;3.60;;
69087;SDS011;56190;43.562;5.036;2023-06-05T13:16:00;8.77;;;3.70;;
69087;SDS011;56190;43.562;5.036;2023-06-05T13:18:27;6.28;;;3.58;;
69087;SDS011;56190;43.562;5.036;2023-06-05T13:20:52;5.63;;;4.10;;
69087;SDS011;56190;43.562;5.036;2023-06-05T13:23:17;4.70;;;3.50;;
69087;SDS011;56190;43.562;5.036;2023-06-05T13:25:42;5.47;;;4.32;;
69087;SDS011;56190;43.562;5.036;2023-06-05T13:28:08;4.75;;;4.18;;
69087;SDS011;56190;43.562;5.036;2023-06-05T13:30:35;5.80;;;4.15;;
69087;SDS011;56190;43.562;5.036;2023-06-05T13:33:02;12.48;;;4.80;;
69087;SDS011;56190;43.562;5.036;2023-06-05T13:35:28;6.93;;;4.22;;
69087;SDS011;56190;43.562;5.036;2023-06-05T13:37:55;5.55;;;3.88;;
69087;SDS011;56190;43.562;5.036;2023-06-05T13:40:20;12.07;;;4.03;;
69087;SDS011;56190;43.562;5.036;2023-06-05T13:42:46;5.10;;;3.60;;
69087;SDS011;56190;43.562;5.036;2023-06-05T13:45:12;4.65;;;3.70;;
69087;SDS011;56190;43.562;5.036;2023-06-05T13:47:37;4.88;;;3.25;;
69087;SDS011;56190;43.562;5.036;2023-06-05T13:50:03;5.18;;;3.55;;
69087;SDS011;56190;43.562;5.036;2023-06-05T13:52:28;7.55;;;3.67;;
69087;SDS011;56190;43.562;5.036;2023-06-05T13:54:53;5.15;;;3.80;;
69087;SDS011;56190;43.562;5.036;2023-06-05T13:57:19;5.07;;;3.40;;
69087;SDS011;56190;43.562;5.036;2023-06-05T13:59:46;5.72;;;3.90;;
69087;SDS011;56190;43.562;5.036;2023-06-05T14:02:12;5.65;;;3.30;;
69087;SDS011;56190;43.562;5.036;2023-06-05T14:04:39;5.55;;;3.55;;
69087;SDS011;56190;43.562;5.036;2023-06-05T14:07:07;4.38;;;3.97;;
69087;SDS011;56190;43.562;5.036;2023-06-05T14:09:32;5.10;;;3.50;;
69087;SDS011;56190;43.562;5.036;2023-06-05T14:12:00;4.32;;;3.20;;
69087;SDS011;56190;43.562;5.036;2023-06-05T14:14:27;5.30;;;3.60;;
69087;SDS011;56190;43.562;5.036;2023-06-05T14:16:53;4.32;;;3.20;;
69087;SDS011;56190;43.562;5.036;2023-06-05T14:19:19;4.18;;;3.33;;
69087;SDS011;56190;43.562;5.036;2023-06-05T14:21:47;6.07;;;3.55;;
69087;SDS011;56190;43.562;5.036;2023-06-05T14:24:15;4.47;;;3.40;;
69087;SDS011;56190;43.562;5.036;2023-06-05T14:26:40;4.88;;;4.00;;
69087;SDS011;56190;43.562;5.036;2023-06-05T14:29:06;4.70;;;3.58;;
69087;SDS011;56190;43.562;5.036;2023-06-05T14:31:32;5.63;;;3.70;;
69087;SDS011;56190;43.562;5.036;2023-06-05T14:33:57;7.63;;;3.70;;
69087;SDS011;56190;43.562;5.036;2023-06-05T14:36:25;5.50;;;3.60;;
69087;SDS011;56190;43.562;5.036;2023-06-05T14:38:50;8.82;;;3.90;;
69087;SDS011;56190;43.562;5.036;2023-06-05T14:41:15;8.35;;;3.95;;
69087;SDS011;56190;43.562;5.036;2023-06-05T14:43:43;5.60;;;3.65;;
69087;SDS011;56190;43.562;5.036;2023-06-05T14:46:10;5.65;;;3.75;;
69087;SDS011;56190;43.562;5.036;2023-06-05T14:48:38;5.20;;;3.67;;
69087;SDS011;56190;43.562;5.036;2023-06-05T14:51:03;5.55;;;3.75;;
69087;SDS011;56190;43.562;5.036;2023-06-05T14:53:29;4.78;;;3.53;;
69087;SDS011;56190;43.562;5.036;2023-06-05T14:55:54;4.45;;;3.30;;
69087;SDS011;56190;43.562;5.036;2023-06-05T14:58:19;4.30;;;3.35;;
69087;SDS011;56190;43.562;5.036;2023-06-05T15:00:45;5.70;;;3.42;;
69087;SDS011;56190;43.562;5.036;2023-06-05T15:03:11;4.53;;;3.20;;
69087;SDS011;56190;43.562;5.036;2023-06-05T15:05:36;4.70;;;3.10;;
69087;SDS011;56190;43.562;5.036;2023-06-05T15:08:04;4.90;;;3.20;;
69087;SDS011;56190;43.562;5.036;2023-06-05T15:10:33;5.57;;;3.13;;